sensor_id;sensor_type;location;lat;lon;timestamp;temperature;humidity
38854;DHT22;24606;51.992;4.198;2023-04-25T00:01:23;17.40;61.80
38854;DHT22;24606;51.992;4.198;2023-04-25T00:06:27;16.90;73.00
38854;DHT22;24606;51.992;4.198;2023-04-25T00:11:28;16.70;73.50
38854;DHT22;24606;51.992;4.198;2023-04-25T00:16:31;18.00;68.60
38854;DHT22;24606;51.992;4.198;2023-04-25T00:21:36;18.30;67.30
38854;DHT22;24606;51.992;4.198;2023-04-25T00:26:40;17.30;67.10
38854;DHT22;24606;51.992;4.198;2023-04-25T00:31:42;15.40;82.50
38854;DHT22;24606;51.992;4.198;2023-04-25T00:36:46;17.00;75.50
38854;DHT22;24606;51.992;4.198;2023-04-25T00:41:48;18.30;66.50
38854;DHT22;24606;51.992;4.198;2023-04-25T00:46:53;18.10;67.50
38854;DHT22;24606;51.992;4.198;2023-04-25T00:51:57;18.60;64.50
38854;DHT22;24606;51.992;4.198;2023-04-25T00:56:59;18.40;65.40
38854;DHT22;24606;51.992;4.198;2023-04-25T01:02:01;18.00;63.10
38854;DHT22;24606;51.992;4.198;2023-04-25T01:07:05;17.70;67.20
38854;DHT22;24606;51.992;4.198;2023-04-25T01:12:07;17.90;66.90
38854;DHT22;24606;51.992;4.198;2023-04-25T01:17:09;17.10;72.70
38854;DHT22;24606;51.992;4.198;2023-04-25T01:22:12;16.30;60.40
38854;DHT22;24606;51.992;4.198;2023-04-25T01:27:15;15.40;70.40
38854;DHT22;24606;51.992;4.198;2023-04-25T01:32:17;13.90;65.50
38854;DHT22;24606;51.992;4.198;2023-04-25T01:37:21;15.90;79.80
38854;DHT22;24606;51.992;4.198;2023-04-25T01:42:23;16.10;73.10
38854;DHT22;24606;51.992;4.198;2023-04-25T01:47:25;14.40;83.30
38854;DHT22;24606;51.992;4.198;2023-04-25T01:52:28;14.00;89.90
38854;DHT22;24606;51.992;4.198;2023-04-25T01:57:30;13.70;85.30
38854;DHT22;24606;51.992;4.198;2023-04-25T02:02:32;14.50;91.60
38854;DHT22;24606;51.992;4.198;2023-04-25T02:07:35;14.60;89.20
38854;DHT22;24606;51.992;4.198;2023-04-25T02:12:38;16.40;76.00
38854;DHT22;24606;51.992;4.198;2023-04-25T02:17:40;16.50;75.70
38854;DHT22;24606;51.992;4.198;2023-04-25T02:22:43;16.90;73.50
38854;DHT22;24606;51.992;4.198;2023-04-25T02:27:45;17.20;68.20
38854;DHT22;24606;51.992;4.198;2023-04-25T02:32:46;17.60;66.30
38854;DHT22;24606;51.992;4.198;2023-04-25T02:37:50;17.70;64.10
38854;DHT22;24606;51.992;4.198;2023-04-25T02:42:51;15.20;74.40
38854;DHT22;24606;51.992;4.198;2023-04-25T02:47:53;17.50;67.40
38854;DHT22;24606;51.992;4.198;2023-04-25T02:52:57;16.30;54.30
38854;DHT22;24606;51.992;4.198;2023-04-25T02:57:58;15.50;61.80
38854;DHT22;24606;51.992;4.198;2023-04-25T03:03:00;14.50;88.50
38854;DHT22;24606;51.992;4.198;2023-04-25T03:08:04;16.20;75.80
38854;DHT22;24606;51.992;4.198;2023-04-25T03:13:06;17.30;68.80
38854;DHT22;24606;51.992;4.198;2023-04-25T03:18:08;16.40;75.50
38854;DHT22;24606;51.992;4.198;2023-04-25T03:23:11;17.20;68.70
38854;DHT22;24606;51.992;4.198;2023-04-25T03:28:13;15.90;75.30
38854;DHT22;24606;51.992;4.198;2023-04-25T03:33:15;16.40;74.30
38854;DHT22;24606;51.992;4.198;2023-04-25T03:38:18;15.20;81.10
38854;DHT22;24606;51.992;4.198;2023-04-25T03:43:20;17.20;68.20
38854;DHT22;24606;51.992;4.198;2023-04-25T03:48:22;17.70;65.50
38854;DHT22;24606;51.992;4.198;2023-04-25T03:53:26;18.00;63.60
38854;DHT22;24606;51.992;4.198;2023-04-25T03:58:28;18.10;63.10
38854;DHT22;24606;51.992;4.198;2023-04-25T04:03:30;16.20;62.80
38854;DHT22;24606;51.992;4.198;2023-04-25T04:08:33;16.90;68.60
38854;DHT22;24606;51.992;4.198;2023-04-25T04:13:35;17.60;62.50
38854;DHT22;24606;51.992;4.198;2023-04-25T04:18:37;17.40;64.40
38854;DHT22;24606;51.992;4.198;2023-04-25T04:23:40;16.70;66.10
38854;DHT22;24606;51.992;4.198;2023-04-25T04:28:43;16.90;68.20
38854;DHT22;24606;51.992;4.198;2023-04-25T04:33:45;17.40;62.10
38854;DHT22;24606;51.992;4.198;2023-04-25T04:38:48;17.90;63.20
38854;DHT22;24606;51.992;4.198;2023-04-25T04:43:50;17.80;64.60
38854;DHT22;24606;51.992;4.198;2023-04-25T04:48:54;18.10;63.20
38854;DHT22;24606;51.992;4.198;2023-04-25T04:53:58;18.10;63.10
38854;DHT22;24606;51.992;4.198;2023-04-25T04:59:02;17.60;59.60
38854;DHT22;24606;51.992;4.198;2023-04-25T05:04:05;17.50;60.50
38854;DHT22;24606;51.992;4.198;2023-04-25T05:09:08;18.00;64.40
38854;DHT22;24606;51.992;4.198;2023-04-25T05:14:11;17.80;64.10
38854;DHT22;24606;51.992;4.198;2023-04-25T05:19:13;17.00;68.60
38854;DHT22;24606;51.992;4.198;2023-04-25T05:24:16;17.20;66.80
38854;DHT22;24606;51.992;4.198;2023-04-25T05:29:18;16.20;69.80
38854;DHT22;24606;51.992;4.198;2023-04-25T05:34:20;15.00;61.40
38854;DHT22;24606;51.992;4.198;2023-04-25T05:39:23;13.60;82.90
38854;DHT22;24606;51.992;4.198;2023-04-25T05:44:24;13.90;92.60
38854;DHT22;24606;51.992;4.198;2023-04-25T05:49:27;16.30;65.20
38854;DHT22;24606;51.992;4.198;2023-04-25T05:54:30;16.00;77.00
38854;DHT22;24606;51.992;4.198;2023-04-25T05:59:32;14.60;77.90
38854;DHT22;24606;51.992;4.198;2023-04-25T06:04:34;15.50;79.90
38854;DHT22;24606;51.992;4.198;2023-04-25T06:09:37;17.60;67.90
38854;DHT22;24606;51.992;4.198;2023-04-25T06:14:40;18.20;63.80
38854;DHT22;24606;51.992;4.198;2023-04-25T06:19:42;18.30;63.30
38854;DHT22;24606;51.992;4.198;2023-04-25T06:24:45;17.40;62.50
38854;DHT22;24606;51.992;4.198;2023-04-25T06:29:47;17.60;68.20
38854;DHT22;24606;51.992;4.198;2023-04-25T06:34:49;18.00;63.50
38854;DHT22;24606;51.992;4.198;2023-04-25T06:39:53;17.80;60.10
38854;DHT22;24606;51.992;4.198;2023-04-25T06:44:54;17.20;68.50
38854;DHT22;24606;51.992;4.198;2023-04-25T06:49:56;16.00;78.90
38854;DHT22;24606;51.992;4.198;2023-04-25T06:54:59;17.80;66.10
38854;DHT22;24606;51.992;4.198;2023-04-25T07:00:01;15.50;72.10
38854;DHT22;24606;51.992;4.198;2023-04-25T07:05:05;15.70;63.10
38854;DHT22;24606;51.992;4.198;2023-04-25T07:10:09;17.10;69.00
38854;DHT22;24606;51.992;4.198;2023-04-25T07:15:11;17.30;63.60
38854;DHT22;24606;51.992;4.198;2023-04-25T07:20:12;17.00;63.60
38854;DHT22;24606;51.992;4.198;2023-04-25T07:25:16;15.40;85.40
38854;DHT22;24606;51.992;4.198;2023-04-25T07:30:18;15.60;74.90
38854;DHT22;24606;51.992;4.198;2023-04-25T07:35:19;14.60;81.00
38854;DHT22;24606;51.992;4.198;2023-04-25T07:40:23;13.20;90.40
38854;DHT22;24606;51.992;4.198;2023-04-25T07:45:26;15.00;86.20
38854;DHT22;24606;51.992;4.198;2023-04-25T07:50:28;14.10;86.50
38854;DHT22;24606;51.992;4.198;2023-04-25T07:55:31;15.80;61.40
38854;DHT22;24606;51.992;4.198;2023-04-25T08:00:33;14.50;59.40
38854;DHT22;24606;51.992;4.198;2023-04-25T08:05:35;15.60;64.00
38854;DHT22;24606;51.992;4.198;2023-04-25T08:10:38;13.00;93.70
38854;DHT22;24606;51.992;4.198;2023-04-25T08:15:40;13.10;84.30
38854;DHT22;24606;51.992;4.198;2023-04-25T08:20:42;13.50;69.80
38854;DHT22;24606;51.992;4.198;2023-04-25T08:25:45;15.20;82.90
38854;DHT22;24606;51.992;4.198;2023-04-25T08:30:47;14.40;77.20
38854;DHT22;24606;51.992;4.198;2023-04-25T08:35:49;14.60;80.50
38854;DHT22;24606;51.992;4.198;2023-04-25T08:40:52;15.60;78.70
38854;DHT22;24606;51.992;4.198;2023-04-25T08:45:59;15.00;80.70
38854;DHT22;24606;51.992;4.198;2023-04-25T08:51:02;15.10;71.70
38854;DHT22;24606;51.992;4.198;2023-04-25T08:56:06;14.50;88.70
38854;DHT22;24606;51.992;4.198;2023-04-25T09:01:09;17.10;70.40
38854;DHT22;24606;51.992;4.198;2023-04-25T09:06:11;17.90;66.30
38854;DHT22;24606;51.992;4.198;2023-04-25T09:11:15;17.20;54.70
38854;DHT22;24606;51.992;4.198;2023-04-25T09:16:17;14.30;79.70
38854;DHT22;24606;51.992;4.198;2023-04-25T09:21:22;14.80;84.80
38854;DHT22;24606;51.992;4.198;2023-04-25T09:26:26;15.50;77.40
38854;DHT22;24606;51.992;4.198;2023-04-25T09:31:27;15.80;71.00
38854;DHT22;24606;51.992;4.198;2023-04-25T09:36:30;15.60;80.40
38854;DHT22;24606;51.992;4.198;2023-04-25T09:41:37;14.80;86.50
38854;DHT22;24606;51.992;4.198;2023-04-25T09:46:39;16.60;71.50
38854;DHT22;24606;51.992;4.198;2023-04-25T09:51:41;13.70;91.30
38854;DHT22;24606;51.992;4.198;2023-04-25T09:56:46;14.20;90.30
38854;DHT22;24606;51.992;4.198;2023-04-25T10:01:50;16.10;58.40
38854;DHT22;24606;51.992;4.198;2023-04-25T10:06:53;14.80;77.40
38854;DHT22;24606;51.992;4.198;2023-04-25T10:11:56;15.00;71.20
38854;DHT22;24606;51.992;4.198;2023-04-25T10:16:59;17.90;63.10
38854;DHT22;24606;51.992;4.198;2023-04-25T10:22:06;16.20;65.20
38854;DHT22;24606;51.992;4.198;2023-04-25T10:27:10;16.50;77.00
38854;DHT22;24606;51.992;4.198;2023-04-25T10:32:12;16.50;77.70
38854;DHT22;24606;51.992;4.198;2023-04-25T10:37:15;15.50;58.00
38854;DHT22;24606;51.992;4.198;2023-04-25T10:42:18;15.80;66.60
38854;DHT22;24606;51.992;4.198;2023-04-25T10:47:34;15.90;81.60
38854;DHT22;24606;51.992;4.198;2023-04-25T10:52:38;16.30;65.60
38854;DHT22;24606;51.992;4.198;2023-04-25T10:57:43;15.70;71.20
38854;DHT22;24606;51.992;4.198;2023-04-25T11:02:48;15.20;84.70
38854;DHT22;24606;51.992;4.198;2023-04-25T11:07:54;16.80;61.90
38854;DHT22;24606;51.992;4.198;2023-04-25T11:12:59;15.70;80.20
38854;DHT22;24606;51.992;4.198;2023-04-25T11:18:01;17.80;66.90
38854;DHT22;24606;51.992;4.198;2023-04-25T11:23:04;16.10;74.30
38854;DHT22;24606;51.992;4.198;2023-04-25T11:28:07;16.50;73.40
38854;DHT22;24606;51.992;4.198;2023-04-25T11:33:09;16.00;61.00
38854;DHT22;24606;51.992;4.198;2023-04-25T11:38:11;17.00;62.30
38854;DHT22;24606;51.992;4.198;2023-04-25T11:43:14;17.50;53.10
38854;DHT22;24606;51.992;4.198;2023-04-25T11:48:16;14.60;58.90
38854;DHT22;24606;51.992;4.198;2023-04-25T11:53:18;14.60;61.90
38854;DHT22;24606;51.992;4.198;2023-04-25T11:58:21;12.90;70.90
38854;DHT22;24606;51.992;4.198;2023-04-25T12:03:23;13.60;93.60
38854;DHT22;24606;51.992;4.198;2023-04-25T12:08:27;13.00;95.60
38854;DHT22;24606;51.992;4.198;2023-04-25T12:13:31;13.60;91.40
38854;DHT22;24606;51.992;4.198;2023-04-25T12:18:35;14.30;67.30
38854;DHT22;24606;51.992;4.198;2023-04-25T12:23:38;13.50;65.60
38854;DHT22;24606;51.992;4.198;2023-04-25T12:28:45;14.00;81.20
38854;DHT22;24606;51.992;4.198;2023-04-25T12:33:48;14.30;65.10
38854;DHT22;24606;51.992;4.198;2023-04-25T12:38:50;14.50;85.30
38854;DHT22;24606;51.992;4.198;2023-04-25T12:43:53;15.30;76.70
38854;DHT22;24606;51.992;4.198;2023-04-25T12:48:55;14.50;79.40
38854;DHT22;24606;51.992;4.198;2023-04-25T12:53:58;14.80;84.00
38854;DHT22;24606;51.992;4.198;2023-04-25T12:59:01;14.60;85.30
38854;DHT22;24606;51.992;4.198;2023-04-25T13:04:03;16.30;78.60
38854;DHT22;24606;51.992;4.198;2023-04-25T13:09:05;16.40;63.90
38854;DHT22;24606;51.992;4.198;2023-04-25T13:14:09;14.50;59.70
38854;DHT22;24606;51.992;4.198;2023-04-25T13:19:11;16.30;79.80
38854;DHT22;24606;51.992;4.198;2023-04-25T13:24:13;16.30;62.80
38854;DHT22;24606;51.992;4.198;2023-04-25T13:29:16;15.70;53.40
38854;DHT22;24606;51.992;4.198;2023-04-25T13:34:18;18.10;73.40
38854;DHT22;24606;51.992;4.198;2023-04-25T13:39:20;18.20;70.90
38854;DHT22;24606;51.992;4.198;2023-04-25T13:44:23;18.00;58.90
38854;DHT22;24606;51.992;4.198;2023-04-25T13:49:25;16.50;55.80
38854;DHT22;24606;51.992;4.198;2023-04-25T13:54:27;18.00;74.60
38854;DHT22;24606;51.992;4.198;2023-04-25T13:59:30;16.90;74.90
38854;DHT22;24606;51.992;4.198;2023-04-25T14:04:32;17.30;57.60
38854;DHT22;24606;51.992;4.198;2023-04-25T14:09:34;16.90;57.30
38854;DHT22;24606;51.992;4.198;2023-04-25T14:14:38;18.30;83.90
38854;DHT22;24606;51.992;4.198;2023-04-25T14:19:40;20.10;58.60
38854;DHT22;24606;51.992;4.198;2023-04-25T14:24:45;19.10;60.30
38854;DHT22;24606;51.992;4.198;2023-04-25T14:29:49;20.00;74.10
38854;DHT22;24606;51.992;4.198;2023-04-25T14:34:50;19.20;77.20
38854;DHT22;24606;51.992;4.198;2023-04-25T14:39:52;19.90;70.10
38854;DHT22;24606;51.992;4.198;2023-04-25T14:44:55;18.60;61.50
38854;DHT22;24606;51.992;4.198;2023-04-25T14:49:57;20.20;57.40
38854;DHT22;24606;51.992;4.198;2023-04-25T14:54:59;21.00;71.50
38854;DHT22;24606;51.992;4.198;2023-04-25T15:00:07;19.30;47.20
38854;DHT22;24606;51.992;4.198;2023-04-25T15:05:10;19.10;77.10
38854;DHT22;24606;51.992;4.198;2023-04-25T15:10:12;18.90;53.20
38854;DHT22;24606;51.992;4.198;2023-04-25T15:15:17;19.50;52.90
38854;DHT22;24606;51.992;4.198;2023-04-25T15:20:19;20.90;58.50
38854;DHT22;24606;51.992;4.198;2023-04-25T15:25:21;18.60;62.70
38854;DHT22;24606;51.992;4.198;2023-04-25T15:30:24;21.00;57.40
38854;DHT22;24606;51.992;4.198;2023-04-25T15:35:27;21.30;61.50
38854;DHT22;24606;51.992;4.198;2023-04-25T15:40:28;18.60;43.50
38854;DHT22;24606;51.992;4.198;2023-04-25T15:45:32;21.40;60.90
38854;DHT22;24606;51.992;4.198;2023-04-25T15:50:35;21.50;58.30
38854;DHT22;24606;51.992;4.198;2023-04-25T15:55:37;21.30;60.00
38854;DHT22;24606;51.992;4.198;2023-04-25T16:00:40;20.40;52.50
38854;DHT22;24606;51.992;4.198;2023-04-25T16:05:42;20.70;58.50
38854;DHT22;24606;51.992;4.198;2023-04-25T16:10:44;21.00;55.80
38854;DHT22;24606;51.992;4.198;2023-04-25T16:15:48;21.40;58.80
38854;DHT22;24606;51.992;4.198;2023-04-25T16:20:49;21.60;58.00
38854;DHT22;24606;51.992;4.198;2023-04-25T16:25:51;21.00;72.70
38854;DHT22;24606;51.992;4.198;2023-04-25T16:30:55;20.20;67.50
38854;DHT22;24606;51.992;4.198;2023-04-25T16:35:57;22.00;47.60
38854;DHT22;24606;51.992;4.198;2023-04-25T16:40:59;21.50;55.00
38854;DHT22;24606;51.992;4.198;2023-04-25T16:46:02;22.60;58.30
38854;DHT22;24606;51.992;4.198;2023-04-25T16:51:04;21.30;60.80
38854;DHT22;24606;51.992;4.198;2023-04-25T16:56:06;21.00;59.40
38854;DHT22;24606;51.992;4.198;2023-04-25T17:01:10;20.40;55.00
38854;DHT22;24606;51.992;4.198;2023-04-25T17:06:15;21.60;59.60
38854;DHT22;24606;51.992;4.198;2023-04-25T17:11:17;21.70;56.50
38854;DHT22;24606;51.992;4.198;2023-04-25T17:16:21;22.10;57.80
38854;DHT22;24606;51.992;4.198;2023-04-25T17:21:23;21.30;64.20
38854;DHT22;24606;51.992;4.198;2023-04-25T17:26:25;20.30;73.50
38854;DHT22;24606;51.992;4.198;2023-04-25T17:31:28;20.40;73.00
38854;DHT22;24606;51.992;4.198;2023-04-25T17:36:30;20.40;66.80
38854;DHT22;24606;51.992;4.198;2023-04-25T17:41:32;18.50;58.90
38854;DHT22;24606;51.992;4.198;2023-04-25T17:46:35;19.90;82.60
38854;DHT22;24606;51.992;4.198;2023-04-25T17:51:37;18.80;69.50
38854;DHT22;24606;51.992;4.198;2023-04-25T17:56:39;20.60;75.90
38854;DHT22;24606;51.992;4.198;2023-04-25T18:01:42;22.80;64.10
38854;DHT22;24606;51.992;4.198;2023-04-25T18:06:44;22.10;65.60
38854;DHT22;24606;51.992;4.198;2023-04-25T18:11:46;23.00;65.70
38854;DHT22;24606;51.992;4.198;2023-04-25T18:16:51;21.20;60.00
38854;DHT22;24606;51.992;4.198;2023-04-25T18:21:54;21.60;55.80
38854;DHT22;24606;51.992;4.198;2023-04-25T18:26:56;22.40;65.50
38854;DHT22;24606;51.992;4.198;2023-04-25T18:32:01;20.50;68.50
38854;DHT22;24606;51.992;4.198;2023-04-25T18:37:04;20.70;74.60
38854;DHT22;24606;51.992;4.198;2023-04-25T18:42:06;21.70;68.40
38854;DHT22;24606;51.992;4.198;2023-04-25T18:47:09;20.80;73.20
38854;DHT22;24606;51.992;4.198;2023-04-25T18:52:12;22.00;68.70
38854;DHT22;24606;51.992;4.198;2023-04-25T18:57:15;20.90;74.10
38854;DHT22;24606;51.992;4.198;2023-04-25T19:02:18;17.80;91.60
38854;DHT22;24606;51.992;4.198;2023-04-25T19:07:22;21.50;66.50
38854;DHT22;24606;51.992;4.198;2023-04-25T19:12:24;21.70;64.20
38854;DHT22;24606;51.992;4.198;2023-04-25T19:17:27;21.70;62.20
38854;DHT22;24606;51.992;4.198;2023-04-25T19:22:29;22.40;58.40
38854;DHT22;24606;51.992;4.198;2023-04-25T19:27:32;21.30;58.90
38854;DHT22;24606;51.992;4.198;2023-04-25T19:32:36;21.60;59.60
38854;DHT22;24606;51.992;4.198;2023-04-25T19:37:38;21.60;59.60
38854;DHT22;24606;51.992;4.198;2023-04-25T19:46:12;22.30;56.80
38854;DHT22;24606;51.992;4.198;2023-04-25T19:51:14;20.40;58.20
38854;DHT22;24606;51.992;4.198;2023-04-25T19:56:16;22.20;57.20
38854;DHT22;24606;51.992;4.198;2023-04-25T20:01:19;21.40;47.60
38854;DHT22;24606;51.992;4.198;2023-04-25T20:06:22;18.10;62.00
38854;DHT22;24606;51.992;4.198;2023-04-25T20:11:23;18.90;51.20
38854;DHT22;24606;51.992;4.198;2023-04-25T20:16:29;21.70;58.20
38854;DHT22;24606;51.992;4.198;2023-04-25T20:21:31;20.80;59.00
38854;DHT22;24606;51.992;4.198;2023-04-25T20:26:33;21.70;57.20
38854;DHT22;24606;51.992;4.198;2023-04-25T20:31:37;21.60;58.00
38854;DHT22;24606;51.992;4.198;2023-04-25T20:36:39;22.00;56.50
38854;DHT22;24606;51.992;4.198;2023-04-25T20:41:42;21.50;56.30
38854;DHT22;24606;51.992;4.198;2023-04-25T20:46:46;21.60;56.90
38854;DHT22;24606;51.992;4.198;2023-04-25T20:51:49;21.40;57.70
38854;DHT22;24606;51.992;4.198;2023-04-25T20:56:51;20.80;59.20
38854;DHT22;24606;51.992;4.198;2023-04-25T21:01:55;21.30;57.70
38854;DHT22;24606;51.992;4.198;2023-04-25T21:06:58;21.70;56.90
38854;DHT22;24606;51.992;4.198;2023-04-25T21:12:01;21.60;55.70
38854;DHT22;24606;51.992;4.198;2023-04-25T21:17:05;20.40;57.40
38854;DHT22;24606;51.992;4.198;2023-04-25T21:22:07;19.90;61.20
38854;DHT22;24606;51.992;4.198;2023-04-25T21:27:10;18.10;65.30
38854;DHT22;24606;51.992;4.198;2023-04-25T21:32:13;18.50;54.70
38854;DHT22;24606;51.992;4.198;2023-04-25T21:37:20;18.20;72.40
38854;DHT22;24606;51.992;4.198;2023-04-25T21:42:22;20.30;61.80
38854;DHT22;24606;51.992;4.198;2023-04-25T21:47:25;20.00;59.70
38854;DHT22;24606;51.992;4.198;2023-04-25T21:52:27;19.50;63.60
38854;DHT22;24606;51.992;4.198;2023-04-25T21:57:29;20.50;59.70
38854;DHT22;24606;51.992;4.198;2023-04-25T22:02:32;19.40;63.10
38854;DHT22;24606;51.992;4.198;2023-04-25T22:07:36;20.40;55.80
38854;DHT22;24606;51.992;4.198;2023-04-25T22:12:38;20.10;60.70
38854;DHT22;24606;51.992;4.198;2023-04-25T22:17:41;20.80;58.10
38854;DHT22;24606;51.992;4.198;2023-04-25T22:22:43;20.90;57.70
38854;DHT22;24606;51.992;4.198;2023-04-25T22:27:45;20.90;57.20
38854;DHT22;24606;51.992;4.198;2023-04-25T22:32:48;20.90;57.90
38854;DHT22;24606;51.992;4.198;2023-04-25T22:37:51;20.80;57.10
38854;DHT22;24606;51.992;4.198;2023-04-25T22:42:53;20.70;55.60
38854;DHT22;24606;51.992;4.198;2023-04-25T22:47:56;20.70;57.60
38854;DHT22;24606;51.992;4.198;2023-04-25T22:52:58;20.70;57.30
38854;DHT22;24606;51.992;4.198;2023-04-25T22:58:00;20.70;57.70
38854;DHT22;24606;51.992;4.198;2023-04-25T23:03:03;20.70;57.20
38854;DHT22;24606;51.992;4.198;2023-04-25T23:08:05;20.40;58.40
38854;DHT22;24606;51.992;4.198;2023-04-25T23:13:07;20.60;57.60
38854;DHT22;24606;51.992;4.198;2023-04-25T23:18:10;20.60;57.20
38854;DHT22;24606;51.992;4.198;2023-04-25T23:23:12;20.60;57.30
38854;DHT22;24606;51.992;4.198;2023-04-25T23:28:14;20.50;57.20
38854;DHT22;24606;51.992;4.198;2023-04-25T23:33:18;20.50;57.20
38854;DHT22;24606;51.992;4.198;2023-04-25T23:38:20;20.50;57.30
38854;DHT22;24606;51.992;4.198;2023-04-25T23:43:22;20.40;57.30
38854;DHT22;24606;51.992;4.198;2023-04-25T23:48:25;20.40;57.30
38854;DHT22;24606;51.992;4.198;2023-04-25T23:53:27;20.40;57.30
38854;DHT22;24606;51.992;4.198;2023-04-25T23:58:29;20.40;57.40
